Time;durP1;ratioP1;P1;durP2;ratioP2;P2;SDS_P1;SDS_P2;PMS_P1;PMS_P2;Temp;Humidity;BMP_temperature;BMP_pressure;BME280_temperature;BME280_humidity;BME280_pressure;Samples;Min_cycle;Max_cycle;Signal;HPM_P1;HPM_P2
2022/01/30 04:17:16;;;;;;;;;;;;;;;;;;;;;
2022/01/30 08:35:43;;;;;;;8.60;3.87;;;7.80;99.90;;;;;;4977880;28;20449;-92
2022/01/30 08:38:16;;;;;;;11.50;3.67;;;7.90;99.90;;;;;;5023885;28;20468;-89
2022/01/30 08:40:51;;;;;;;9.03;3.33;;;8.00;99.90;;;;;;5036501;28;20457;-91
2022/01/30 08:43:21;;;;;;;7.77;4.60;;;8.00;99.90;;;;;;5169577;22;20550;-93
2022/01/30 08:45:51;;;;;;;17.50;4.80;;;8.10;99.90;;;;;;5018651;28;20459;-92
2022/01/30 14:34:06;;;;;;;7.73;3.03;;;12.60;62.00;;;;;;5027507;28;20957;-89
2022/01/30 14:36:34;;;;;;;6.70;3.03;;;12.20;63.90;;;;;;5018954;28;20449;-88
2022/01/30 14:39:01;;;;;;;6.90;3.67;;;12.20;64.80;;;;;;5018595;28;20504;-89
2022/01/30 14:41:30;;;;;;;8.23;3.67;;;11.90;65.10;;;;;;5010449;28;20442;-88
2022/01/30 14:43:57;;;;;;;8.83;3.13;;;11.60;65.40;;;;;;5013747;28;20451;-89
2022/01/30 14:46:23;;;;;;;12.40;3.20;;;11.30;66.10;;;;;;5018890;28;20469;-88
2022/01/30 14:48:50;;;;;;;10.47;4.30;;;11.20;67.20;;;;;;5014591;28;20472;-88
2022/01/30 14:51:21;;;;;;;7.83;3.03;;;11.50;67.70;;;;;;5014280;28;20469;-88
2022/01/30 14:53:47;;;;;;;11.80;5.20;;;11.80;66.80;;;;;;5010593;28;20503;-89
2022/01/30 14:56:14;;;;;;;6.20;3.70;;;11.70;65.70;;;;;;5013532;28;20447;-89
2022/01/30 14:58:41;;;;;;;9.90;3.37;;;11.30;65.80;;;;;;5012679;28;20512;-91
2022/01/30 15:01:08;;;;;;;10.30;3.57;;;10.90;66.60;;;;;;5008960;28;20478;-91
2022/01/30 15:03:38;;;;;;;8.13;4.43;;;10.60;67.30;;;;;;5016004;28;20465;-92
2022/01/30 15:06:05;;;;;;;6.73;3.60;;;10.40;69.00;;;;;;5016676;28;20443;-92
2022/01/30 15:08:33;;;;;;;8.27;3.40;;;10.10;69.60;;;;;;5016028;28;20459;-92
2022/01/30 15:11:00;;;;;;;11.40;3.17;;;9.90;71.50;;;;;;5013277;28;20452;-91
2022/01/30 15:13:27;;;;;;;8.00;3.40;;;9.80;72.60;;;;;;5012427;28;20946;-91
2022/01/30 15:15:56;;;;;;;7.70;3.20;;;9.60;73.00;;;;;;5009931;28;20446;-92
2022/01/30 15:18:29;;;;;;;10.30;3.03;;;9.60;74.20;;;;;;5016760;28;20459;-91
2022/01/30 15:20:57;;;;;;;7.90;3.07;;;9.60;74.70;;;;;;5018731;28;20522;-90
2022/01/30 15:23:31;;;;;;;7.17;3.40;;;9.50;75.10;;;;;;5025956;28;20431;-90
2022/01/30 15:26:02;;;;;;;11.77;3.30;;;9.40;76.10;;;;;;5020205;28;20513;-92
2022/01/30 15:28:35;;;;;;;11.47;4.23;;;9.20;77.10;;;;;;5011891;28;20469;-91
2022/01/30 15:31:02;;;;;;;8.13;3.77;;;9.00;77.90;;;;;;5023762;28;20513;-91
2022/01/30 15:33:32;;;;;;;9.03;4.10;;;8.80;78.30;;;;;;5014702;28;20450;-89
2022/01/30 15:36:00;;;;;;;10.10;3.10;;;8.70;78.40;;;;;;5032963;28;20446;-88
2022/01/30 15:38:27;;;;;;;8.27;3.60;;;8.60;78.60;;;;;;5034104;28;20466;-90
2022/01/30 15:40:54;;;;;;;9.10;3.97;;;8.50;78.80;;;;;;5021631;28;20573;-92
2022/01/30 15:43:23;;;;;;;15.13;4.90;;;8.50;79.60;;;;;;5019591;28;20442;-90
2022/01/30 15:54:02;;;;;;;14.47;5.60;;;8.20;80.70;;;;;;5014290;28;20442;-92
2022/01/30 15:59:13;;;;;;;13.40;7.83;;;8.00;82.30;;;;;;5007135;28;20469;-93
2022/01/30 16:09:51;;;;;;;21.30;10.00;;;7.90;84.30;;;;;;4998895;28;20542;-92
2022/01/30 16:18:05;;;;;;;12.50;6.23;;;7.80;84.50;;;;;;4999678;28;20434;-92
2022/01/30 16:20:37;;;;;;;11.13;5.70;;;7.80;84.60;;;;;;4982780;28;20509;-92
2022/01/30 16:34:59;;;;;;;32.57;11.10;;;7.40;84.90;;;;;;5003785;28;20478;-91
2022/01/30 16:40:19;;;;;;;11.53;6.33;;;7.30;85.70;;;;;;5022061;28;20478;-92
2022/01/30 16:48:21;;;;;;;27.40;12.10;;;7.20;86.50;;;;;;5023125;28;20454;-92
2022/01/30 16:51:20;;;;;;;36.53;12.33;;;7.10;85.90;;;;;;5035515;28;20460;-93
2022/01/30 16:53:55;;;;;;;36.07;16.50;;;7.10;86.90;;;;;;5004732;28;20956;-93
2022/01/30 17:01:46;;;;;;;11.90;8.67;;;6.90;88.30;;;;;;5020531;28;20535;-92
2022/01/30 17:04:14;;;;;;;10.33;5.40;;;6.90;88.00;;;;;;5019308;28;20450;-93
2022/01/30 17:06:42;;;;;;;14.33;5.27;;;6.80;88.20;;;;;;5101455;23;20506;-94
2022/01/30 17:09:31;;;;;;;25.60;11.60;;;6.80;88.30;;;;;;5038125;28;20562;-91
2022/01/30 17:12:07;;;;;;;27.10;13.60;;;6.80;88.50;;;;;;5010888;28;20481;-92
2022/01/30 17:17:17;;;;;;;17.70;8.83;;;6.60;89.20;;;;;;5020587;28;20454;-93
2022/01/30 17:19:45;;;;;;;17.50;9.67;;;6.70;89.60;;;;;;5013755;28;20474;-92
2022/01/30 17:22:14;;;;;;;22.33;12.03;;;6.60;89.60;;;;;;5005908;28;20451;-91
2022/01/30 17:24:54;;;;;;;11.57;5.93;;;6.60;90.10;;;;;;5012762;28;20454;-92
2022/01/30 17:30:13;;;;;;;39.87;19.13;;;6.60;90.00;;;;;;5012996;28;20492;-92
2022/01/30 17:35:32;;;;;;;38.10;19.23;;;6.40;90.60;;;;;;5001819;28;20434;-91
2022/01/30 17:41:15;;;;;;;27.77;13.80;;;6.30;90.90;;;;;;5007617;28;20467;-92
2022/01/30 17:43:52;;;;;;;21.40;8.50;;;6.20;91.00;;;;;;5003540;28;20451;-92
2022/01/30 17:52:08;;;;;;;9.23;7.60;;;6.00;91.50;;;;;;5017728;28;21167;-92
2022/01/30 17:57:33;;;;;;;31.00;11.80;;;5.80;92.10;;;;;;5022706;28;20445;-93
2022/01/30 18:00:01;;;;;;;26.50;12.20;;;5.90;92.00;;;;;;5020245;28;20470;-92
2022/01/30 18:08:01;;;;;;;16.20;7.97;;;6.00;92.00;;;;;;5011251;28;20878;-92
2022/01/30 18:13:47;;;;;;;15.23;6.70;;;5.80;92.10;;;;;;5024562;28;20492;-92
2022/01/30 18:19:12;;;;;;;60.83;25.43;;;5.80;92.40;;;;;;5021971;28;20473;-92
2022/01/30 18:33:47;;;;;;;15.80;8.67;;;5.70;92.80;;;;;;5143137;27;20433;-92
2022/01/30 18:36:29;;;;;;;30.80;15.70;;;5.60;93.00;;;;;;5140945;27;20487;-91
2022/01/30 18:39:19;;;;;;;24.90;12.77;;;5.50;93.10;;;;;;5156215;27;20972;-92
2022/01/30 18:49:07;;;;;;;24.27;12.53;;;5.30;93.60;;;;;;5154236;27;20450;-81
2022/01/30 18:51:34;;;;;;;20.60;9.70;;;5.30;93.90;;;;;;5152138;27;20440;-81
2022/01/30 18:54:01;;;;;;;20.20;8.33;;;5.30;93.90;;;;;;5154190;27;20940;-81
2022/01/30 18:56:27;;;;;;;22.77;9.70;;;5.40;94.10;;;;;;5153251;27;20504;-82
2022/01/30 18:58:54;;;;;;;21.40;9.33;;;5.40;93.70;;;;;;5153036;27;20463;-81
2022/01/30 19:01:21;;;;;;;15.27;6.33;;;5.50;93.70;;;;;;5156131;27;20523;-82
2022/01/30 19:03:51;;;;;;;10.37;4.60;;;5.50;93.80;;;;;;5154360;27;20509;-82
2022/01/30 19:06:19;;;;;;;30.53;5.83;;;5.40;93.70;;;;;;5153153;27;20436;-82
2022/01/30 19:08:46;;;;;;;16.43;7.30;;;5.30;93.90;;;;;;5162606;27;20459;-82
2022/01/30 19:11:13;;;;;;;18.63;9.20;;;5.10;94.20;;;;;;5150427;27;20439;-82
2022/01/30 19:13:39;;;;;;;14.33;6.40;;;5.20;94.60;;;;;;5150874;27;20457;-83
2022/01/30 19:16:06;;;;;;;15.83;6.80;;;5.10;94.50;;;;;;5153661;27;20440;-86
2022/01/30 19:21:56;;;;;;;18.93;7.00;;;4.80;95.00;;;;;;5121204;28;20550;-92
2022/01/30 19:24:23;;;;;;;12.83;7.80;;;4.70;95.40;;;;;;5126404;27;20538;-93
2022/01/30 19:29:44;;;;;;;37.87;18.10;;;4.70;95.70;;;;;;5143833;22;20512;-93
2022/01/30 19:38:10;;;;;;;14.63;6.00;;;4.70;96.10;;;;;;5115419;28;20440;-93
2022/01/30 19:54:39;;;;;;;16.57;7.87;;;4.40;96.80;;;;;;3269988;22;20537;-95
2022/01/30 20:03:07;;;;;;;16.97;7.03;;;4.30;97.30;;;;;;5236012;22;20477;-94
2022/01/30 20:08:17;;;;;;;9.30;5.87;;;4.30;97.40;;;;;;5293668;22;20482;-94
2022/01/30 21:03:28;;;;;;;6.40;4.47;;;3.90;98.80;;;;;;5054766;28;20480;-95
2022/01/30 21:37:06;;;;;;;11.10;7.23;;;4.20;98.60;;;;;;5069958;28;20491;-93
2022/01/30 21:39:34;;;;;;;16.63;7.70;;;4.20;98.60;;;;;;5069677;28;20467;-93
2022/01/30 21:42:05;;;;;;;10.63;5.97;;;4.10;98.50;;;;;;5070502;28;20438;-93
2022/01/30 21:44:33;;;;;;;14.93;6.33;;;4.10;98.70;;;;;;5069162;28;20483;-94
2022/01/30 21:47:00;;;;;;;14.30;7.40;;;4.10;98.80;;;;;;5072293;28;20449;-94
2022/01/30 21:49:28;;;;;;;14.37;6.83;;;4.20;98.80;;;;;;5070085;28;20538;-94
2022/01/30 21:52:06;;;;;;;11.83;6.70;;;4.20;98.70;;;;;;5072226;28;21192;-94
2022/01/30 21:54:40;;;;;;;18.87;6.07;;;4.30;98.80;;;;;;5071225;28;20487;-94
2022/01/30 21:57:11;;;;;;;14.57;5.97;;;4.30;98.80;;;;;;5067446;28;20456;-94
2022/01/30 21:59:55;;;;;;;11.47;5.33;;;4.30;98.70;;;;;;5070329;28;20524;-94
2022/01/30 22:02:50;;;;;;;10.43;6.73;;;4.30;98.50;;;;;;5071745;28;20471;-94
2022/01/30 22:05:30;;;;;;;14.93;6.27;;;4.40;98.50;;;;;;5066815;28;20480;-94
2022/01/30 22:08:00;;;;;;;15.13;6.73;;;4.30;98.60;;;;;;5077471;28;20508;-94
2022/01/30 22:10:42;;;;;;;18.93;6.60;;;4.30;98.70;;;;;;5071851;28;20432;-93
2022/01/30 22:13:16;;;;;;;17.77;7.67;;;4.30;98.70;;;;;;5054937;28;20484;-93
2022/01/30 22:15:59;;;;;;;11.40;7.20;;;4.30;98.90;;;;;;5072092;28;20436;-93
2022/01/30 22:18:39;;;;;;;11.93;5.83;;;4.30;98.80;;;;;;5069073;28;20468;-93
2022/01/30 22:27:55;;;;;;;;;;;;;;;;;;;;;
2022/01/30 22:38:13;;;;;;;9.50;5.50;;;4.10;99.10;;;;;;5261072;22;20480;-93
2022/01/30 22:41:01;;;;;;;15.00;5.87;;;4.00;99.40;;;;;;5111748;28;20508;-93
2022/01/30 22:43:34;;;;;;;14.27;5.90;;;3.80;99.70;;;;;;5115107;28;20462;-94
2022/01/30 22:46:04;;;;;;;12.63;6.07;;;3.80;99.70;;;;;;5116660;28;20421;-92
2022/01/30 22:48:36;;;;;;;10.37;5.70;;;3.80;99.90;;;;;;5105152;28;20474;-95
2022/01/30 22:51:09;;;;;;;11.50;6.00;;;3.80;99.90;;;;;;5098585;28;20476;-95
2022/01/30 22:53:38;;;;;;;15.97;7.23;;;3.70;99.90;;;;;;5102687;28;20439;-94
2022/01/30 22:56:09;;;;;;;11.53;6.90;;;3.60;99.90;;;;;;5096726;28;20440;-94
2022/01/30 23:19:40;;;;;;;10.63;5.30;;;3.50;99.90;;;;;;5092693;28;20467;-92
2022/01/30 23:22:08;;;;;;;7.73;5.80;;;3.50;99.90;;;;;;5095993;28;20454;-92
2022/01/30 23:24:37;;;;;;;7.50;5.40;;;3.60;99.90;;;;;;5096122;28;20471;-92
2022/01/30 23:29:45;;;;;;;10.63;5.70;;;3.50;99.90;;;;;;5087516;28;20463;-93
2022/01/30 23:35:35;;;;;;;13.60;7.57;;;3.50;99.90;;;;;;5080396;28;20443;-93
2022/01/30 23:40:39;;;;;;;16.47;7.70;;;3.60;99.90;;;;;;5075550;28;20468;-92
2022/01/30 23:43:12;;;;;;;13.10;6.70;;;3.60;99.90;;;;;;5073410;28;20502;-92
2022/01/30 23:45:39;;;;;;;8.57;6.60;;;3.60;99.90;;;;;;5073438;28;20474;-92
2022/01/30 23:48:07;;;;;;;15.90;7.63;;;3.60;99.90;;;;;;5073487;28;20487;-92
2022/01/30 23:50:36;;;;;;;24.47;9.73;;;3.60;99.90;;;;;;5072692;28;20517;-93
2022/01/30 23:55:49;;;;;;;16.93;6.73;;;3.40;99.90;;;;;;5071736;28;20468;-92
2022/01/30 23:58:24;;;;;;;11.87;6.80;;;3.40;99.90;;;;;;5074763;28;20488;-91
